Time;durP1;ratioP1;P1;durP2;ratioP2;P2;SDS_P1;SDS_P2;PMS_P1;PMS_P2;Temp;Humidity;BMP_temperature;BMP_pressure;BME280_temperature;BME280_humidity;BME280_pressure;Samples;Min_cycle;Max_cycle;Signal;HPM_P1;HPM_P2
2023/08/28 00:08:08;;;;;;;18.4;14.8;;;;;;;20.5;92.62;;;;;
2023/08/28 00:19:08;;;;;;;21.1;18.5;;;;;;;20.71;92.74;;;;;
2023/08/28 00:30:07;;;;;;;21.1;18.5;;;;;;;20.71;93;;;;;
2023/08/28 00:40:08;;;;;;;21.1;18.5;;;;;;;20.71;92.66;;;;;
2023/08/28 00:50:08;;;;;;;27.7;24;;;;;;;20.84;92.32;;;;;
2023/08/28 01:00:10;;;;;;;27.7;24;;;;;;;20.94;91.64;;;;;
2023/08/28 01:11:08;;;;;;;27.7;24;;;;;;;20.89;90.82;;;;;
2023/08/28 01:21:08;;;;;;;32.5;26.8;;;;;;;20.79;90.79;;;;;
2023/08/28 01:31:08;;;;;;;32.5;26.8;;;;;;;20.79;90.22;;;;;
2023/08/28 01:42:08;;;;;;;32.5;26.8;;;;;;;20.58;90.56;;;;;
2023/08/28 01:52:08;;;;;;;28.7;23.1;;;;;;;20.45;90.25;;;;;
2023/08/28 02:03:08;;;;;;;28.7;23.1;;;;;;;20.19;88.98;;;;;
2023/08/28 02:14:08;;;;;;;28.7;23.1;;;;;;;19.94;88.31;;;;;
2023/08/28 02:25:09;;;;;;;10.7;8.6;;;;;;;19.53;86.97;;;;;
2023/08/28 02:36:08;;;;;;;10.7;8.6;;;;;;;19.27;86.1;;;;;
2023/08/28 02:47:08;;;;;;;7.3;4.3;;;;;;;19.05;86.21;;;;;
2023/08/28 02:58:08;;;;;;;7.3;4.3;;;;;;;18.95;87.06;;;;;
2023/08/28 03:09:08;;;;;;;7.3;4.3;;;;;;;18.91;87.76;;;;;
2023/08/28 03:20:09;;;;;;;10.7;6.4;;;;;;;18.75;88.71;;;;;
2023/08/28 03:30:09;;;;;;;10.7;6.4;;;;;;;18.74;88.93;;;;;
2023/08/28 03:41:08;;;;;;;10.7;6.4;;;;;;;18.71;88.23;;;;;
2023/08/28 03:52:08;;;;;;;9.2;5;;;;;;;18.72;87.55;;;;;
2023/08/28 04:02:08;;;;;;;9.2;5;;;;;;;18.93;87.44;;;;;
2023/08/28 04:13:08;;;;;;;9.2;5;;;;;;;18.9;86.82;;;;;
2023/08/28 04:24:08;;;;;;;5.9;3;;;;;;;19.03;86.31;;;;;
2023/08/28 04:34:08;;;;;;;5.9;3;;;;;;;19.02;85.55;;;;;
2023/08/28 04:45:08;;;;;;;5.9;3;;;;;;;19.01;85.44;;;;;
2023/08/28 04:56:08;;;;;;;4.1;2.1;;;;;;;19.05;85.59;;;;;
2023/08/28 05:06:08;;;;;;;4.1;2.1;;;;;;;19.1;86.2;;;;;
2023/08/28 05:17:08;;;;;;;4.5;1.8;;;;;;;19.28;86.46;;;;;
2023/08/28 05:28:08;;;;;;;4.5;1.8;;;;;;;19.34;86.11;;;;;
2023/08/28 05:38:08;;;;;;;4.5;1.8;;;;;;;19.65;86.74;;;;;
2023/08/28 05:49:08;;;;;;;5;2.5;;;;;;;19.81;85.54;;;;;
2023/08/28 05:59:08;;;;;;;5;2.5;;;;;;;19.96;84.72;;;;;
2023/08/28 06:10:08;;;;;;;5;2.5;;;;;;;19.98;84.01;;;;;
2023/08/28 06:21:08;;;;;;;6.9;3;;;;;;;20.22;84.41;;;;;
2023/08/28 06:32:08;;;;;;;6.9;3;;;;;;;20.48;84;;;;;
2023/08/28 06:43:08;;;;;;;6.9;3;;;;;;;20.86;82.76;;;;;
2023/08/28 06:53:08;;;;;;;6;3.6;;;;;;;21.25;80.01;;;;;
2023/08/28 07:03:09;;;;;;;6;3.6;;;;;;;21.46;78.29;;;;;
2023/08/28 07:14:08;;;;;;;6;3.6;;;;;;;21.8;76.13;;;;;
2023/08/28 07:24:08;;;;;;;4.3;2.2;;;;;;;21.65;75.82;;;;;
2023/08/28 07:35:08;;;;;;;4.3;2.2;;;;;;;21.44;76.02;;;;;
2023/08/28 07:45:08;;;;;;;4.3;2.2;;;;;;;21.2;77.46;;;;;
2023/08/28 07:55:08;;;;;;;4.1;2;;;;;;;21.32;76.02;;;;;
2023/08/28 08:06:08;;;;;;;4.1;2;;;;;;;20.79;77.96;;;;;
2023/08/28 08:17:09;;;;;;;3.6;1.6;;;;;;;21.14;77.76;;;;;
2023/08/28 08:28:08;;;;;;;3.6;1.6;;;;;;;20.7;78.84;;;;;
2023/08/28 08:38:08;;;;;;;3.6;1.6;;;;;;;20.27;80.26;;;;;
2023/08/28 08:49:08;;;;;;;3.3;1.3;;;;;;;20.34;81;;;;;
2023/08/28 08:59:08;;;;;;;3.3;1.3;;;;;;;20.06;78.51;;;;;
2023/08/28 09:09:09;;;;;;;3.3;1.3;;;;;;;20.11;78.61;;;;;
2023/08/28 09:20:11;;;;;;;3.3;1.5;;;;;;;19.78;80.09;;;;;
2023/08/28 09:30:08;;;;;;;3.3;1.5;;;;;;;19.88;79.9;;;;;
2023/08/28 09:40:08;;;;;;;3.3;1.5;;;;;;;19.83;79.47;;;;;
2023/08/28 09:51:08;;;;;;;5.8;2.3;;;;;;;19.74;78.87;;;;;
2023/08/28 10:01:08;;;;;;;5.8;2.3;;;;;;;19.69;79.3;;;;;
2023/08/28 10:12:08;;;;;;;5.8;2.3;;;;;;;19.5;80.79;;;;;
2023/08/28 10:22:08;;;;;;;5.7;3.1;;;;;;;19.65;80.32;;;;;
2023/08/28 10:33:08;;;;;;;5.7;3.1;;;;;;;20.22;78.4;;;;;
2023/08/28 10:43:08;;;;;;;5.7;3.1;;;;;;;20.01;79.14;;;;;
2023/08/28 10:53:08;;;;;;;8;5.4;;;;;;;20.42;79.18;;;;;
2023/08/28 11:04:08;;;;;;;8;5.4;;;;;;;20.42;78.01;;;;;
2023/08/28 11:15:08;;;;;;;8;5.4;;;;;;;20.52;77.42;;;;;
2023/08/28 11:26:08;;;;;;;8.9;7.5;;;;;;;20.77;77.37;;;;;
2023/08/28 11:37:08;;;;;;;8.9;7.5;;;;;;;20.69;77.31;;;;;
2023/08/28 11:47:08;;;;;;;10.2;7.1;;;;;;;20.91;77.38;;;;;
2023/08/28 11:57:08;;;;;;;10.2;7.1;;;;;;;20.78;77.34;;;;;
2023/08/28 12:07:08;;;;;;;10.2;7.1;;;;;;;21.01;77.02;;;;;
2023/08/28 12:18:08;;;;;;;10.7;7.5;;;;;;;21.09;77.31;;;;;
2023/08/28 12:28:08;;;;;;;10.7;7.5;;;;;;;21.14;76.28;;;;;
2023/08/28 12:38:08;;;;;;;10.7;7.5;;;;;;;21.2;76.44;;;;;
2023/08/28 12:48:08;;;;;;;10.5;6.3;;;;;;;20.98;77.1;;;;;
2023/08/28 12:58:08;;;;;;;10.5;6.3;;;;;;;20.99;77.66;;;;;
2023/08/28 13:09:08;;;;;;;10.5;6.3;;;;;;;20.79;78.67;;;;;
2023/08/28 13:19:08;;;;;;;8.2;4.9;;;;;;;20.8;79.88;;;;;
2023/08/28 13:29:08;;;;;;;8.2;4.9;;;;;;;20.84;80.06;;;;;
2023/08/28 13:40:08;;;;;;;8.2;4.9;;;;;;;21.08;79.67;;;;;
2023/08/28 13:50:08;;;;;;;9.4;4.9;;;;;;;21.02;80.52;;;;;
2023/08/28 14:00:11;;;;;;;9.4;4.9;;;;;;;21.16;80.42;;;;;
2023/08/28 14:11:08;;;;;;;9.4;4.9;;;;;;;21.1;80.61;;;;;
2023/08/28 14:22:08;;;;;;;7;4.5;;;;;;;20.1;84.58;;;;;
2023/08/28 14:33:08;;;;;;;7;4.5;;;;;;;20.18;86.01;;;;;
2023/08/28 14:43:08;;;;;;;7;4.5;;;;;;;20.32;85.02;;;;;
2023/08/28 14:54:08;;;;;;;7;4.2;;;;;;;20.16;86.29;;;;;
2023/08/28 15:05:08;;;;;;;7;4.2;;;;;;;20.05;85.93;;;;;
2023/08/28 15:15:08;;;;;;;7;4.2;;;;;;;20.11;87.25;;;;;
2023/08/28 15:26:08;;;;;;;5.8;3.5;;;;;;;20;87.48;;;;;
2023/08/28 15:36:08;;;;;;;5.8;3.5;;;;;;;19.78;89.04;;;;;
2023/08/28 15:47:08;;;;;;;7.9;4.5;;;;;;;19.63;89.62;;;;;
2023/08/28 15:57:09;;;;;;;7.9;4.5;;;;;;;19.6;90.03;;;;;
2023/08/28 16:07:08;;;;;;;7.9;4.5;;;;;;;19.6;90.32;;;;;
2023/08/28 16:18:08;;;;;;;6.9;4.5;;;;;;;19.46;91.01;;;;;
2023/08/28 16:29:08;;;;;;;6.9;4.5;;;;;;;19.41;91.41;;;;;
2023/08/28 16:39:08;;;;;;;6.9;4.5;;;;;;;19.46;91.87;;;;;
2023/08/28 16:50:08;;;;;;;7.8;5.2;;;;;;;19.5;91.68;;;;;
2023/08/28 17:00:08;;;;;;;7.8;5.2;;;;;;;19.46;92.28;;;;;
2023/08/28 17:11:08;;;;;;;7.8;5.2;;;;;;;19.5;92.24;;;;;
2023/08/28 17:22:08;;;;;;;8.9;6.3;;;;;;;19.4;92.65;;;;;
2023/08/28 17:32:08;;;;;;;8.9;6.3;;;;;;;19.37;92.67;;;;;
2023/08/28 17:42:08;;;;;;;8.9;6.3;;;;;;;19.41;92.87;;;;;
2023/08/28 17:53:09;;;;;;;13.8;9.3;;;;;;;19.37;93.01;;;;;
2023/08/28 18:03:08;;;;;;;13.8;9.3;;;;;;;19.22;93.61;;;;;
2023/08/28 18:14:08;;;;;;;13.8;9.3;;;;;;;19.32;93.37;;;;;
2023/08/28 18:25:08;;;;;;;13;9.1;;;;;;;19.34;93.82;;;;;
2023/08/28 18:36:08;;;;;;;13;9.1;;;;;;;19.36;93.59;;;;;
2023/08/28 18:47:08;;;;;;;12.8;10.5;;;;;;;19.33;93.69;;;;;
2023/08/28 18:58:09;;;;;;;12.8;10.5;;;;;;;19.21;94.15;;;;;
2023/08/28 19:09:08;;;;;;;12.8;10.5;;;;;;;19.09;94.39;;;;;
2023/08/28 19:20:08;;;;;;;11.4;8.3;;;;;;;19.11;94.31;;;;;
2023/08/28 19:30:08;;;;;;;11.4;8.3;;;;;;;19.21;93.96;;;;;
2023/08/28 19:41:08;;;;;;;11.4;8.3;;;;;;;19.31;93.92;;;;;
2023/08/28 19:51:08;;;;;;;12;8.7;;;;;;;19.21;94.11;;;;;
2023/08/28 20:02:09;;;;;;;12;8.7;;;;;;;19.34;93.49;;;;;
2023/08/28 20:13:08;;;;;;;12;8.7;;;;;;;19.6;93.01;;;;;
2023/08/28 20:23:08;;;;;;;12.8;9.6;;;;;;;19.6;92.63;;;;;
2023/08/28 20:33:09;;;;;;;12.8;9.6;;;;;;;19.64;92.58;;;;;
2023/08/28 20:44:09;;;;;;;12.8;9.6;;;;;;;19.4;93.04;;;;;
2023/08/28 20:54:11;;;;;;;12.9;9.8;;;;;;;19.32;93.06;;;;;
2023/08/28 21:05:08;;;;;;;12.9;9.8;;;;;;;19.37;92.83;;;;;
2023/08/28 21:15:09;;;;;;;12.9;9.8;;;;;;;19.4;92.7;;;;;
2023/08/28 21:26:08;;;;;;;12.8;10.1;;;;;;;19.44;92.79;;;;;
2023/08/28 21:37:09;;;;;;;12.8;10.1;;;;;;;19.5;92.37;;;;;
2023/08/28 21:48:08;;;;;;;12.5;8.5;;;;;;;19.52;92.19;;;;;
2023/08/28 21:59:10;;;;;;;12.5;8.5;;;;;;;19.57;92.09;;;;;
2023/08/28 22:09:08;;;;;;;12.5;8.5;;;;;;;19.48;92.49;;;;;
2023/08/28 22:19:09;;;;;;;12.5;9.1;;;;;;;19.58;91.86;;;;;
2023/08/28 22:29:09;;;;;;;12.5;9.1;;;;;;;19.68;91.76;;;;;
2023/08/28 22:40:08;;;;;;;12.5;9.1;;;;;;;19.75;91.42;;;;;
2023/08/28 22:50:09;;;;;;;11.4;8.5;;;;;;;19.72;91.36;;;;;
2023/08/28 23:01:08;;;;;;;11.4;8.5;;;;;;;19.78;91.29;;;;;
2023/08/28 23:11:09;;;;;;;11.4;8.5;;;;;;;19.74;91.47;;;;;
2023/08/28 23:21:10;;;;;;;13.2;8.6;;;;;;;19.61;91.8;;;;;
2023/08/28 23:32:09;;;;;;;13.2;8.6;;;;;;;19.79;91.65;;;;;
2023/08/28 23:43:09;;;;;;;13.2;8.6;;;;;;;19.8;91.52;;;;;
2023/08/28 23:54:09;;;;;;;12.7;9.5;;;;;;;19.91;91.42;;;;;
